createdAt,value
2023-02-19T00:02:56.038Z,99794.53
2023-02-19T00:06:03.352Z,99782.13
2023-02-19T00:12:21.056Z,99788.16
2023-02-19T00:15:22.597Z,99783.56
2023-02-19T00:18:24.276Z,99795.94
2023-02-19T00:21:26.626Z,99804.97
2023-02-19T00:24:29.114Z,99800.19
2023-02-19T00:30:46.202Z,99780.00
2023-02-19T00:34:02.316Z,99786.38
2023-02-19T00:37:04.190Z,99798.78
2023-02-19T00:40:11.871Z,99791.78
2023-02-19T00:43:17.082Z,99782.88
2023-02-19T00:46:35.505Z,99787.97
2023-02-19T00:49:37.449Z,99811.78
2023-02-19T00:52:39.366Z,99808.28
2023-02-19T00:55:40.893Z,99800.81
2023-02-19T00:58:42.463Z,99776.00
2023-02-19T01:01:45.123Z,99774.44
2023-02-19T01:04:46.823Z,99781.28
2023-02-19T01:11:20.382Z,99775.72
2023-02-19T01:14:24.273Z,99780.31
2023-02-19T01:20:43.908Z,99795.53
2023-02-19T01:23:45.482Z,99785.94
2023-02-19T01:26:49.264Z,99777.81
2023-02-19T01:29:50.912Z,99783.03
2023-02-19T01:32:54.229Z,99787.16
2023-02-19T01:39:12.325Z,99798.88
2023-02-19T01:42:16.998Z,99788.16
2023-02-19T01:45:31.078Z,99798.94
2023-02-19T01:48:57.254Z,99791.47
2023-02-19T01:52:00.827Z,99789.84
2023-02-19T01:55:12.717Z,99788.88
2023-02-19T01:58:15.739Z,99785.38
2023-02-19T02:01:17.339Z,99793.59
2023-02-19T02:04:19.173Z,99792.78
2023-02-19T02:07:44.906Z,99793.72
2023-02-19T02:10:46.517Z,99807.84
2023-02-19T02:13:49.139Z,99810.22
2023-02-19T02:17:04.373Z,99793.56
2023-02-19T02:20:11.910Z,99800.13
2023-02-19T02:23:16.054Z,99794.44
2023-02-19T02:26:46.057Z,99797.25
2023-02-19T02:33:50.257Z,99774.34
2023-02-19T02:36:55.701Z,99783.25
2023-02-19T02:40:02.823Z,99767.59
2023-02-19T02:43:09.438Z,99758.22
2023-02-19T02:46:12.847Z,99740.47
2023-02-19T02:49:21.354Z,99741.66
2023-02-19T02:52:44.775Z,99736.84
2023-02-19T02:55:51.785Z,99747.03
2023-02-19T02:58:59.048Z,99737.03
2023-02-19T03:02:10.884Z,99751.84
2023-02-19T03:05:44.193Z,99746.22
2023-02-19T03:09:04.317Z,99754.41
2023-02-19T03:12:35.061Z,99742.72
2023-02-19T03:16:02.669Z,99757.41
2023-02-19T03:19:27.890Z,99746.31
2023-02-19T03:22:36.355Z,99748.81
2023-02-19T03:26:01.132Z,99759.97
2023-02-19T03:29:26.154Z,99751.13
2023-02-19T03:32:53.903Z,99746.13
2023-02-19T03:36:44.173Z,99751.72
2023-02-19T03:39:48.194Z,99756.31
2023-02-19T03:43:07.837Z,99756.13
2023-02-19T03:46:32.051Z,99760.41
2023-02-19T03:49:58.514Z,99759.13
2023-02-19T03:53:19.164Z,99757.50
2023-02-19T03:56:55.777Z,99765.59
2023-02-19T04:00:05.789Z,99750.44
2023-02-19T04:06:58.895Z,99762.19
2023-02-19T04:10:07.608Z,99764.59
2023-02-19T04:13:20.533Z,99761.72
2023-02-19T04:16:26.629Z,99746.75
2023-02-19T04:22:51.349Z,99770.09
2023-02-19T04:25:57.769Z,99785.47
2023-02-19T04:29:08.210Z,99801.03
2023-02-19T04:32:15.894Z,99793.53
2023-02-19T04:35:18.399Z,99810.00
2023-02-19T04:38:22.281Z,99806.81
2023-02-19T04:41:23.876Z,99811.41
2023-02-19T04:44:32.700Z,99805.41
2023-02-19T04:50:49.829Z,99825.38
2023-02-19T04:53:51.494Z,99833.47
2023-02-19T04:56:52.988Z,99839.16
2023-02-19T04:59:54.551Z,99845.72
2023-02-19T05:02:58.852Z,99848.19
2023-02-19T05:06:09.863Z,99849.97
2023-02-19T05:09:13.534Z,99864.53
2023-02-19T05:12:15.480Z,99864.34
2023-02-19T05:15:19.960Z,99869.19
2023-02-19T05:18:21.679Z,99861.78
2023-02-19T05:21:28.448Z,99876.56
2023-02-19T05:24:55.516Z,99885.72
2023-02-19T05:28:31.332Z,99876.31
2023-02-19T05:32:00.436Z,99883.09
2023-02-19T05:35:02.273Z,99881.78
2023-02-19T05:38:08.243Z,99882.09
2023-02-19T05:41:18.772Z,99891.16
2023-02-19T05:44:22.855Z,99883.63
2023-02-19T05:47:30.525Z,99891.09
2023-02-19T05:50:34.466Z,99900.50
2023-02-19T05:53:50.683Z,99902.41
2023-02-19T05:56:52.302Z,99905.09
2023-02-19T06:03:19.591Z,99895.44
2023-02-19T06:06:21.662Z,99909.97
2023-02-19T06:09:23.580Z,99905.63
2023-02-19T06:12:25.285Z,99918.69
2023-02-19T06:15:26.770Z,99907.25
2023-02-19T06:18:28.312Z,99917.00
2023-02-19T06:21:29.916Z,99922.38
2023-02-19T06:24:40.313Z,99929.09
2023-02-19T06:27:41.858Z,99921.31
2023-02-19T06:30:46.500Z,99914.97
2023-02-19T06:33:48.360Z,99924.78
2023-02-19T06:36:50.229Z,99927.34
2023-02-19T06:39:52.626Z,99917.91
2023-02-19T06:42:54.214Z,99923.56
2023-02-19T06:45:58.962Z,99931.38
2023-02-19T06:49:04.990Z,99931.66
2023-02-19T06:52:14.737Z,99933.31
2023-02-19T06:55:16.383Z,99928.50
2023-02-19T06:58:18.595Z,99939.44
2023-02-19T07:01:24.063Z,99951.50
2023-02-19T07:04:25.699Z,99941.53
2023-02-19T07:07:27.296Z,99938.25
2023-02-19T07:10:30.756Z,99943.44
2023-02-19T07:13:38.241Z,99945.84
2023-02-19T07:16:40.811Z,99961.41
2023-02-19T07:19:51.755Z,99973.78
2023-02-19T07:22:53.395Z,99985.34
2023-02-19T07:25:54.902Z,99989.13
2023-02-19T07:28:58.603Z,99994.88
2023-02-19T07:32:18.676Z,99984.47
2023-02-19T07:35:20.642Z,99985.56
2023-02-19T07:38:26.575Z,99982.88
2023-02-19T07:41:36.855Z,99983.59
2023-02-19T07:44:38.384Z,99987.09
2023-02-19T07:47:41.686Z,99987.31
2023-02-19T07:50:53.901Z,99990.75
2023-02-19T07:53:55.475Z,99986.44
2023-02-19T07:57:03.354Z,99991.31
2023-02-19T08:00:06.154Z,100008.44
2023-02-19T08:03:19.510Z,100004.16
2023-02-19T08:06:28.243Z,100006.34
2023-02-19T08:09:33.698Z,100016.53
2023-02-19T08:12:55.443Z,100007.69
2023-02-19T08:16:21.762Z,100012.53
2023-02-19T08:19:28.348Z,99992.91
2023-02-19T08:22:32.795Z,100011.38
2023-02-19T08:25:35.254Z,100026.56
2023-02-19T08:28:36.979Z,100027.63
2023-02-19T08:31:38.893Z,100030.81
2023-02-19T08:34:48.140Z,100042.69
2023-02-19T08:38:02.232Z,100031.97
2023-02-19T08:41:10.447Z,100034.88
2023-02-19T08:44:12.178Z,100030.59
2023-02-19T08:47:13.690Z,100044.84
2023-02-19T08:50:15.228Z,100039.97
2023-02-19T08:53:20.727Z,100041.00
2023-02-19T08:56:24.976Z,100037.53
2023-02-19T08:59:29.242Z,100052.72
2023-02-19T09:02:31.355Z,100044.94
2023-02-19T09:05:40.305Z,100063.75
2023-02-19T09:08:47.917Z,100060.00
2023-02-19T09:11:55.541Z,100046.31
2023-02-19T09:15:00.811Z,100049.59
2023-02-19T09:18:09.823Z,100056.09
2023-02-19T09:21:18.738Z,100052.00
2023-02-19T09:24:22.828Z,100069.91
2023-02-19T09:27:27.905Z,100071.22
2023-02-19T09:30:32.659Z,100062.13
2023-02-19T09:33:34.302Z,100060.75
2023-02-19T09:36:42.127Z,100068.03
2023-02-19T09:39:43.629Z,100063.22
2023-02-19T09:42:47.522Z,100064.31
2023-02-19T09:45:57.025Z,100056.53
2023-02-19T09:49:21.192Z,100073.25
2023-02-19T09:52:50.527Z,100085.56
2023-02-19T09:55:53.425Z,100086.59
2023-02-19T09:58:57.971Z,100089.72
2023-02-19T10:02:16.831Z,100086.13
2023-02-19T10:05:34.486Z,100093.13
2023-02-19T10:08:37.947Z,100093.66
2023-02-19T10:11:47.638Z,100103.03
2023-02-19T10:14:52.865Z,100098.50
2023-02-19T10:17:54.691Z,100105.81
2023-02-19T10:21:28.049Z,100116.31
2023-02-19T10:24:39.490Z,100112.00
2023-02-19T10:27:42.743Z,100120.38
2023-02-19T10:30:53.177Z,100120.09
2023-02-19T10:33:59.577Z,100120.66
2023-02-19T10:37:06.843Z,100130.44
2023-02-19T10:40:46.127Z,100131.97
2023-02-19T10:43:53.345Z,100131.41
2023-02-19T10:46:59.183Z,100131.63
2023-02-19T10:50:04.013Z,100126.94
2023-02-19T10:53:23.414Z,100131.88
2023-02-19T10:56:31.240Z,100129.81
2023-02-19T10:59:32.908Z,100124.06
2023-02-19T11:02:46.897Z,100124.75
2023-02-19T11:05:59.345Z,100124.19
2023-02-19T11:09:03.560Z,100128.91
2023-02-19T11:12:10.555Z,100125.88
2023-02-19T11:15:27.401Z,100124.94
2023-02-19T11:18:35.242Z,100126.75
2023-02-19T11:21:49.546Z,100129.91
2023-02-19T11:24:55.880Z,100139.91
2023-02-19T11:28:20.655Z,100123.66
2023-02-19T11:31:32.096Z,100128.94
2023-02-19T11:34:35.057Z,100122.22
2023-02-19T11:37:36.658Z,100121.22
2023-02-19T11:40:45.605Z,100127.41
2023-02-19T11:44:01.093Z,100124.81
2023-02-19T11:47:41.335Z,100128.81
2023-02-19T11:50:55.175Z,100131.22
2023-02-19T11:58:29.724Z,100124.75
2023-02-19T12:02:23.118Z,100127.88
2023-02-19T12:05:47.503Z,100133.19
2023-02-19T12:09:14.876Z,100138.28
2023-02-19T12:12:20.910Z,100135.13
2023-02-19T12:15:41.325Z,100140.28
2023-02-19T12:19:16.887Z,100134.66
2023-02-19T12:22:41.767Z,100121.78
2023-02-19T12:25:49.576Z,100121.19
2023-02-19T12:29:11.936Z,100113.31
2023-02-19T12:32:43.044Z,100104.63
2023-02-19T12:36:12.454Z,100095.72
2023-02-19T12:39:53.623Z,100110.91
2023-02-19T12:43:32.287Z,100110.94
2023-02-19T12:46:40.147Z,100096.75
2023-02-19T12:49:50.291Z,100094.78
2023-02-19T12:52:58.308Z,100107.97
2023-02-19T12:56:09.383Z,100100.28
2023-02-19T12:59:39.593Z,100073.25
2023-02-19T13:02:56.374Z,100062.16
2023-02-19T13:06:09.175Z,100078.59
2023-02-19T13:09:55.234Z,100084.38
2023-02-19T13:13:02.217Z,100071.94
2023-02-19T13:16:18.486Z,100083.13
2023-02-19T13:19:20.378Z,100101.75
2023-02-19T13:23:19.896Z,100094.25
2023-02-19T13:27:04.736Z,100080.50
2023-02-19T13:30:34.359Z,100089.28
2023-02-19T13:34:10.174Z,100082.88
2023-02-19T13:37:12.379Z,100089.78
2023-02-19T13:40:35.732Z,100086.03
2023-02-19T13:44:04.730Z,100088.19
2023-02-19T13:47:46.954Z,100089.03
2023-02-19T13:50:51.866Z,100078.16
2023-02-19T13:54:14.872Z,100087.25
2023-02-19T13:57:22.582Z,100104.16
2023-02-19T14:00:50.567Z,100098.28
2023-02-19T14:04:21.360Z,100083.25
2023-02-19T14:07:38.142Z,100093.09
2023-02-19T14:10:55.196Z,100094.59
2023-02-19T14:14:01.649Z,100099.88
2023-02-19T14:17:23.361Z,100089.19
2023-02-19T14:20:45.068Z,100083.13
2023-02-19T14:23:55.932Z,100079.66
2023-02-19T14:27:00.770Z,100083.03
2023-02-19T14:30:04.030Z,100084.47
2023-02-19T14:33:11.382Z,100084.16
2023-02-19T14:36:32.142Z,100088.28
2023-02-19T14:39:40.289Z,100094.59
2023-02-19T14:42:42.357Z,100086.19
2023-02-19T14:46:26.839Z,100087.81
2023-02-19T14:49:42.510Z,100090.09
2023-02-19T14:52:53.549Z,100085.88
2023-02-19T14:55:56.716Z,100087.06
2023-02-19T14:59:13.528Z,100088.75
2023-02-19T15:02:21.097Z,100074.25
2023-02-19T15:05:47.382Z,100082.25
2023-02-19T15:09:00.202Z,100074.94
2023-02-19T15:12:02.933Z,100087.88
2023-02-19T15:15:06.941Z,100092.19
2023-02-19T15:18:23.853Z,100093.59
2023-02-19T15:21:29.445Z,100096.56
2023-02-19T15:24:33.719Z,100093.16
2023-02-19T15:27:35.489Z,100111.06
2023-02-19T15:30:37.086Z,100098.88
2023-02-19T15:33:40.820Z,100092.56
2023-02-19T15:36:42.618Z,100116.19
2023-02-19T15:39:47.234Z,100115.06
2023-02-19T15:42:48.935Z,100113.03
2023-02-19T15:45:54.817Z,100131.34
2023-02-19T15:49:04.155Z,100138.69
2023-02-19T15:52:19.421Z,100137.25
2023-02-19T15:55:44.616Z,100140.75
2023-02-19T15:58:55.162Z,100137.66
2023-02-19T16:02:06.865Z,100142.25
2023-02-19T16:05:15.546Z,100154.84
2023-02-19T16:08:45.199Z,100153.03
2023-02-19T16:11:54.200Z,100156.56
2023-02-19T16:14:58.554Z,100149.56
2023-02-19T16:18:00.687Z,100145.13
2023-02-19T16:21:10.124Z,100162.31
2023-02-19T16:24:16.912Z,100165.41
2023-02-19T16:27:29.798Z,100171.09
2023-02-19T16:30:34.092Z,100175.50
2023-02-19T16:33:48.863Z,100183.09
2023-02-19T16:36:50.540Z,100170.28
2023-02-19T16:40:27.885Z,100176.16
2023-02-19T16:43:42.203Z,100167.88
2023-02-19T16:46:54.801Z,100165.53
2023-02-19T16:49:59.155Z,100172.84
2023-02-19T16:53:07.853Z,100151.63
2023-02-19T16:56:15.391Z,100149.22
2023-02-19T16:59:16.951Z,100149.22
2023-02-19T17:02:22.302Z,100153.00
2023-02-19T17:05:27.489Z,100168.09
2023-02-19T17:08:38.082Z,100166.56
2023-02-19T17:11:39.760Z,100174.38
2023-02-19T17:14:48.994Z,100167.69
2023-02-19T17:17:52.834Z,100163.97
2023-02-19T17:21:27.300Z,100170.16
2023-02-19T17:24:30.988Z,100173.66
2023-02-19T17:27:33.416Z,100171.84
2023-02-19T17:30:50.055Z,100178.91
2023-02-19T17:33:52.084Z,100172.41
2023-02-19T17:37:05.990Z,100175.94
2023-02-19T17:40:33.398Z,100184.50
2023-02-19T17:43:41.502Z,100187.19
2023-02-19T17:46:48.909Z,100188.31
2023-02-19T17:49:50.738Z,100191.09
2023-02-19T17:52:52.567Z,100200.78
2023-02-19T17:55:57.247Z,100197.84
2023-02-19T17:58:59.645Z,100195.81
2023-02-19T18:02:06.533Z,100189.63
2023-02-19T18:05:12.010Z,100197.78
2023-02-19T18:08:16.838Z,100196.97
2023-02-19T18:11:19.376Z,100193.56
2023-02-19T18:14:31.184Z,100200.09
2023-02-19T18:17:35.348Z,100196.31
2023-02-19T18:27:10.761Z,100221.16
2023-02-19T18:30:16.675Z,100222.25
2023-02-19T18:33:18.419Z,100221.44
2023-02-19T18:36:19.995Z,100223.91
2023-02-19T18:39:22.659Z,100219.56
2023-02-19T18:42:38.541Z,100237.41
2023-02-19T18:48:57.955Z,100233.59
2023-02-19T18:52:03.868Z,100241.69
2023-02-19T18:55:05.735Z,100242.78
2023-02-19T18:58:07.623Z,100243.59
2023-02-19T19:01:11.797Z,100246.59
2023-02-19T19:04:17.843Z,100263.03
2023-02-19T19:07:20.115Z,100267.06
2023-02-19T19:10:25.426Z,100269.75
2023-02-19T19:13:41.513Z,100277.84
2023-02-19T19:16:44.408Z,100277.88
2023-02-19T19:19:45.913Z,100279.50
2023-02-19T19:22:53.975Z,100281.38
2023-02-19T19:26:05.985Z,100288.19
2023-02-19T19:29:16.902Z,100289.69
2023-02-19T19:32:21.650Z,100274.41
2023-02-19T19:35:25.637Z,100298.81
2023-02-19T19:41:43.612Z,100302.22
2023-02-19T19:44:50.312Z,100311.59
2023-02-19T19:47:52.892Z,100313.28
2023-02-19T19:50:58.754Z,100311.69
2023-02-19T19:54:03.178Z,100315.69
2023-02-19T19:57:07.290Z,100319.41
2023-02-19T20:00:13.733Z,100310.78
2023-02-19T20:03:15.290Z,100315.41
2023-02-19T20:06:37.169Z,100322.94
2023-02-19T20:09:41.017Z,100314.13
2023-02-19T20:16:06.225Z,100312.53
2023-02-19T20:19:11.729Z,100320.31
2023-02-19T20:22:19.581Z,100318.41
2023-02-19T20:25:22.494Z,100324.34
2023-02-19T20:28:27.079Z,100313.78
2023-02-19T20:31:35.972Z,100311.84
2023-02-19T20:34:38.278Z,100311.78
2023-02-19T20:37:40.726Z,100314.25
2023-02-19T20:40:49.617Z,100310.75
2023-02-19T20:43:51.217Z,100313.44
2023-02-19T20:46:57.104Z,100306.16
2023-02-19T20:50:01.080Z,100309.88
2023-02-19T20:53:10.014Z,100305.81
2023-02-19T20:56:12.314Z,100297.00
2023-02-19T20:59:22.750Z,100296.47
2023-02-19T21:02:29.248Z,100289.75
2023-02-19T21:05:33.064Z,100298.66
2023-02-19T21:08:35.446Z,100301.63
2023-02-19T21:11:37.005Z,100309.19
2023-02-19T21:14:39.512Z,100319.66
2023-02-19T21:17:46.137Z,100321.81
2023-02-19T21:20:47.560Z,100330.19
2023-02-19T21:23:50.422Z,100330.25
2023-02-19T21:26:51.898Z,100333.53
2023-02-19T21:29:53.566Z,100329.25
2023-02-19T21:32:55.244Z,100325.75
2023-02-19T21:35:57.599Z,100321.75
2023-02-19T21:42:17.647Z,100324.09
2023-02-19T21:45:19.214Z,100321.69
2023-02-19T21:48:23.881Z,100319.75
2023-02-19T21:51:55.198Z,100309.75
2023-02-19T21:54:59.644Z,100310.78
2023-02-19T21:58:01.233Z,100319.94
2023-02-19T22:04:37.481Z,100304.03
2023-02-19T22:07:42.842Z,100304.63
2023-02-19T22:10:47.347Z,100299.50
2023-02-19T22:13:50.342Z,100299.72
2023-02-19T22:16:54.694Z,100292.81
2023-02-19T22:23:18.258Z,100301.34
2023-02-19T22:26:26.198Z,100307.59
2023-02-19T22:29:27.830Z,100306.56
2023-02-19T22:32:31.989Z,100312.19
2023-02-19T22:35:33.653Z,100322.75
2023-02-19T22:43:22.798Z,100321.22
2023-02-19T22:46:26.926Z,100336.81
2023-02-19T22:49:28.412Z,100342.78
2023-02-19T22:52:29.954Z,100348.97
2023-02-19T22:55:31.914Z,100348.44
2023-02-19T22:58:33.392Z,100342.78
2023-02-19T23:01:34.903Z,100335.78
2023-02-19T23:04:36.515Z,100341.47
2023-02-19T23:07:38.070Z,100349.25
2023-02-19T23:10:40.920Z,100346.56
2023-02-19T23:13:42.527Z,100347.13
2023-02-19T23:16:44.104Z,100345.75
2023-02-19T23:19:45.631Z,100342.00
2023-02-19T23:22:47.266Z,100345.53
2023-02-19T23:25:48.765Z,100346.84
2023-02-19T23:28:50.664Z,100344.19
2023-02-19T23:31:52.670Z,100362.47
2023-02-19T23:34:54.297Z,100342.38
2023-02-19T23:37:55.900Z,100354.47
2023-02-19T23:40:57.549Z,100366.84
2023-02-19T23:43:59.032Z,100367.88
2023-02-19T23:47:00.546Z,100362.25
2023-02-19T23:50:02.061Z,100361.44
2023-02-19T23:53:04.107Z,100371.41
2023-02-19T23:56:06.530Z,100368.78
2023-02-19T23:59:15.295Z,100367.41
